Latest Weather Observations for Launceston Airport

IDT60801

Issued at 11:31 am EDT Monday 18 February 2019 (issued every 10 minutes, with the page automatically refreshed every 10 minutes)

About weather observations | Map of weather stations | Latest weather observations for TAS | Other Formats
Station Details ID: 091311 Name: LAUNCESTON AIRPORT Lat: -41.55 Lon: 147.22 Height: 166.9 m
Data from the previous 72 hours. | See also: Recent months at Launceston Airport
Date/Time
EDT
Temp
°C
App
Temp
°C
Dew
Point
°C
Rel
Hum
%
Delta-T
°C
Wind Press
QNH
hPa
Press
MSL
hPa
Rain since
9am
mm
Dir  Spd
km/h
Gust
km/h
Spd
kts
Gust
kts
18/11:30am 21.7 15.6 11.7 53 5.7 NW 35 52 19 28 1001.4 1001.0 0.0
18/11:24am 21.2 16.1 11.8 55 5.3 NW 30 48 16 26 1001.6 1001.2 0.0
18/11:00am 19.5 14.4 13.0 66 3.7 NNW 32 39 17 21 1001.8 1001.4 0.0
18/10:35am 20.4 16.2 13.4 64 4.0 NNW 28 43 15 23 1001.8 1001.4 0.0
18/10:30am 20.5 16.4 13.9 66 3.8 NNW 28 37 15 20 1001.8 1001.4 0.0
18/10:00am 18.3 14.9 13.8 75 2.6 NNW 24 32 13 17 1002.0 1001.6 0.0
18/09:59am 18.4 15.1 13.9 75 2.6 NNW 24 32 13 17 1002.0 1001.6 0.0
18/09:45am 19.1 15.4 13.9 72 3.0 NNW 26 32 14 17 1002.0 1001.6 0.0
18/09:30am 17.9 14.6 14.0 78 2.2 NNW 24 30 13 16 1002.2 1001.8 0.0
18/09:00am 17.7 14.2 14.4 81 1.9 NNW 26 33 14 18 1002.5 1002.1 0.0
18/08:30am 17.2 14.2 14.7 85 1.5 NNW 24 30 13 16 1002.7 1002.3 0.0
18/08:00am 16.7 14.3 14.5 87 1.3 NNW 20 28 11 15 1002.8 1002.4 0.0
18/07:30am 16.4 14.2 14.8 90 0.9 NNW 20 24 11 13 1003.0 1002.6 0.0
18/07:00am 16.2 12.7 14.4 89 1.0 NNW 26 33 14 18 1003.2 1002.8 0.0
18/06:57am 16.2 13.1 14.4 89 1.0 NNW 24 33 13 18 1003.2 1002.8 0.0
18/06:49am 16.2 12.7 14.6 90 0.9 NNW 26 32 14 17 1003.1 1002.7 0.0
18/06:30am 16.2 13.1 14.6 90 0.9 NNW 24 32 13 17 1002.8 1002.4 0.0
18/06:00am 16.1 13.0 14.6 91 0.9 NNW 24 30 13 16 1003.0 1002.6 0.0
18/05:30am 16.0 13.3 14.5 91 0.9 NNW 22 32 12 17 1003.1 1002.7 0.0
18/05:00am 15.9 12.8 14.4 91 0.9 NNW 24 32 13 17 1003.4 1003.0 0.0
18/04:30am 15.9 12.8 14.4 91 0.9 NNW 24 33 13 18 1003.7 1003.3 0.0
18/04:16am 15.8 12.6 14.3 91 0.9 NNW 24 30 13 16 1003.9 1003.5 0.0
18/04:00am 15.8 12.6 14.3 91 0.9 NNW 24 30 13 16 1004.2 1003.8 0.0
18/03:51am 15.8 12.6 14.3 91 0.9 NNW 24 30 13 16 1004.4 1004.0 0.0
18/03:30am 15.8 11.5 14.3 91 0.9 NNW 30 41 16 22 1004.9 1004.5 0.0
18/03:00am 16.0 11.5 13.7 86 1.3 NNW 30 39 16 21 1005.0 1004.6 0.0
18/02:30am 16.4 12.9 13.5 83 1.6 NNW 24 30 13 16 1005.0 1004.6 0.0
18/02:00am 16.3 13.2 13.4 83 1.6 N 22 32 12 17 1005.3 1004.9 0.0
18/01:30am 16.2 12.4 13.5 84 1.5 N 26 32 14 17 1006.2 1005.8 0.0
18/01:00am 16.4 13.7 13.5 83 1.6 NNW 20 28 11 15 1006.8 1006.4 0.0
18/12:30am 16.4 13.9 13.5 83 1.6 N 19 26 10 14 1006.9 1006.5 0.0
18/12:00am 16.5 13.8 13.6 83 1.7 NNW 20 26 11 14 1007.4 1007.0 0.0
 
Date/Time
EDT
Temp
°C
App
Temp
°C
Dew
Point
°C
Rel
Hum
%
Delta-T
°C
Wind Press
QNH
hPa
Press
MSL
hPa
Rain since
9am
mm
Dir  Spd
km/h
Gust
km/h
Spd
kts
Gust
kts
17/11:30pm 16.5 14.0 13.4 82 1.8 N 19 26 10 14 1007.6 1007.2 0.0
17/11:00pm 16.4 12.9 13.3 82 1.8 N 24 32 13 17 1007.8 1007.4 0.0
17/10:30pm 16.7 12.8 13.2 80 2.0 N 26 32 14 17 1008.3 1007.9 0.0
17/10:00pm 16.6 13.3 12.9 79 2.1 N 22 30 12 16 1008.5 1008.1 0.0
17/09:30pm 16.6 11.8 12.9 79 2.1 NNW 30 39 16 21 1008.6 1008.2 0.0
17/09:00pm 16.5 11.2 13.0 80 2.0 NNW 33 43 18 23 1008.0 1007.6 0.0
17/08:48pm 16.4 10.7 12.9 80 2.0 NNW 35 48 19 26 1007.8 1007.4 0.0
17/08:30pm 16.2 10.4 12.7 80 2.0 NNW 35 48 19 26 1007.8 1007.4 0.0
17/08:00pm 17.1 10.5 12.6 75 2.5 NNW 39 46 21 25 1007.3 1006.9 0.0
17/07:30pm 17.9 12.0 12.4 70 3.1 NNW 35 48 19 26 1007.4 1007.0 0.0
17/07:00pm 19.0 13.5 12.5 66 3.7 NNW 33 43 18 23 1007.1 1006.7 0.0
17/06:30pm 20.9 15.1 12.6 59 4.7 NNW 35 48 19 26 1007.0 1006.6 0.0
17/06:00pm 21.3 14.6 12.2 56 5.2 NNW 39 50 21 27 1006.8 1006.4 0.0
17/05:30pm 22.0 16.3 11.1 50 6.1 NNW 32 41 17 22 1006.7 1006.3 0.0
17/05:00pm 21.8 17.3 11.5 52 5.8 NNW 26 35 14 19 1007.4 1007.0 0.0
17/04:30pm 20.2 14.3 10.6 54 5.3 NNW 32 39 17 21 1008.0 1007.6 0.0
17/04:00pm 21.8 16.8 12.1 54 5.5 NNW 30 37 16 20 1008.3 1007.9 0.0
17/03:30pm 20.5 14.0 9.1 48 6.1 NNW 33 43 18 23 1008.9 1008.5 0.0
17/03:00pm 21.2 14.4 9.4 47 6.4 NNW 35 43 19 23 1009.1 1008.7 0.0
17/02:30pm 21.6 14.6 8.5 43 7.0 NNW 35 44 19 24 1009.1 1008.7 0.0
17/02:00pm 21.3 14.2 7.9 42 7.0 N 35 44 19 24 1009.2 1008.8 0.0
17/01:30pm 22.0 14.8 7.8 40 7.5 NNW 35 44 19 24 1009.5 1009.1 0.0
17/01:00pm 22.0 15.6 9.5 45 6.8 NNW 33 43 18 23 1009.7 1009.3 0.0
17/12:30pm 22.8 17.0 9.6 43 7.2 NNW 30 41 16 22 1009.9 1009.5 0.0
17/12:00pm 20.9 15.5 9.5 48 6.1 NNW 28 37 15 20 1010.3 1009.9 0.0
17/11:30am 22.1 18.1 10.3 47 6.5 NNW 22 30 12 16 1010.4 1010.0 0.0
17/11:00am 20.3 16.9 10.4 53 5.4 NNW 19 24 10 13 1010.8 1010.4 0.0
17/10:30am 18.8 15.8 10.6 59 4.5 NNW 17 24 9 13 1010.9 1010.5 0.0
17/10:00am 18.2 16.0 12.2 68 3.4 NNW 15 20 8 11 1011.2 1010.9 0.0
17/09:30am 17.1 15.4 12.4 74 2.6 NNW 13 20 7 11 1011.5 1011.2 0.0
17/09:00am 15.8 15.3 12.7 82 1.7 NW 7 13 4 7 1011.4 1011.1 0.0
17/08:59am 15.7 15.2 12.6 82 1.7 NW 7 13 4 7 1011.4 1011.1 0.0
17/08:30am 14.4 14.5 12.8 90 0.9 ENE 4 6 2 3 1011.6 1011.3 0.0
17/08:00am 13.4 12.7 12.0 91 0.8 ENE 7 9 4 5 1011.6 1011.3 0.0
17/07:30am 13.4 13.1 12.6 95 0.4 ENE 6 9 3 5 1011.6 1011.3 0.0
17/07:00am 12.6 12.8 11.8 95 0.4 ENE 2 6 1 3 1011.4 1011.1 0.0
17/06:30am 12.7 11.6 12.1 96 0.3 NE 9 15 5 8 1011.2 1010.9 0.0
17/06:00am 12.7 13.4 12.2 97 0.3 CALM 0 0 0 0 1011.0 1010.6 0.0
17/05:30am 12.2 12.4 11.7 97 0.3 WSW 2 6 1 3 1011.1 1010.7 0.0
17/05:27am 12.2 12.4 11.7 97 0.3 WSW 2 7 1 4 1011.1 1010.7 0.0
17/05:25am 11.7 11.3 11.2 97 0.3 W 4 7 2 4 1011.1 1010.7 0.0
17/05:00am 10.9 8.9 10.3 96 0.3 NNE 11 13 6 7 1010.9 1010.5 0.0
17/04:30am 12.1 10.9 11.6 97 0.3 N 9 11 5 6 1011.1 1010.7 0.0
17/04:00am 12.4 11.3 11.9 97 0.3 N 9 9 5 5 1011.5 1011.2 0.0
17/03:30am 12.7 12.2 12.1 96 0.3 NNW 6 7 3 4 1011.7 1011.4 0.0
17/03:13am 12.2 11.4 11.6 96 0.3 N 7 9 4 5 1011.8 1011.5 0.0
17/03:01am 12.5 11.8 11.9 96 0.3 NNE 7 9 4 5 1012.0 1011.6 0.0
17/03:00am 12.5 11.8 11.9 96 0.3 NNE 7 9 4 5 1012.0 1011.6 0.0
17/02:57am 12.5 11.8 11.9 96 0.3 NNE 7 9 4 5 1012.1 1011.7 0.0
17/02:47am 12.5 11.4 11.9 96 0.3 NNE 9 9 5 5 1012.2 1011.8 0.0
17/02:30am 12.1 10.8 11.3 95 0.4 N 9 11 5 6 1012.5 1012.1 0.0
17/02:25am 12.2 11.0 11.6 96 0.3 N 9 9 5 5 1012.5 1012.1 0.0
17/02:21am 12.5 11.4 11.9 96 0.3 N 9 13 5 7 1012.6 1012.2 0.0
17/02:00am 12.2 10.6 11.4 95 0.4 NNW 11 13 6 7 1012.8 1012.4 0.0
17/01:34am 12.0 9.9 11.1 94 0.5 NNW 13 15 7 8 1012.9 1012.5 0.0
17/01:30am 12.1 10.4 11.2 94 0.5 NNW 11 13 6 7 1012.9 1012.5 0.0
17/01:00am 12.6 10.9 11.3 92 0.7 N 11 13 6 7 1013.1 1012.7 0.0
17/12:42am 13.0 11.0 11.6 91 0.8 N 13 15 7 8 1013.2 1012.8 0.0
17/12:30am 13.6 11.8 12.0 90 0.9 N 13 15 7 8 1013.3 1012.9 0.0
17/12:00am 14.5 12.6 12.9 90 0.9 N 15 19 8 10 1013.6 1013.2 0.0
 
Date/Time
EDT
Temp
°C
App
Temp
°C
Dew
Point
°C
Rel
Hum
%
Delta-T
°C
Wind Press
QNH
hPa
Press
MSL
hPa
Rain since
9am
mm
Dir  Spd
km/h
Gust
km/h
Spd
kts
Gust
kts
16/11:30pm 13.9 12.6 12.5 91 0.8 N 11 15 6 8 1013.8 1013.4 0.0
16/11:24pm 13.9 12.9 12.3 90 0.9 N 9 13 5 7 1013.9 1013.5 0.0
16/11:00pm 14.7 12.8 12.9 89 1.0 NNW 15 17 8 9 1014.0 1013.6 0.0
16/10:30pm 15.2 12.9 12.9 86 1.3 NNW 17 24 9 13 1014.5 1014.1 0.0
16/10:00pm 15.7 13.1 13.2 85 1.4 NNW 19 24 10 13 1014.2 1013.8 0.0
16/09:30pm 16.0 12.8 13.1 83 1.6 NNW 22 28 12 15 1014.4 1014.0 0.0
16/09:00pm 16.5 13.2 12.8 79 2.1 NNW 22 28 12 15 1014.3 1013.9 0.0
16/08:30pm 17.1 14.3 13.2 78 2.2 NW 20 24 11 13 1014.5 1014.1 0.0
16/08:00pm 17.8 14.0 12.3 70 3.1 NNW 24 30 13 16 1014.2 1013.8 0.0
16/07:30pm 18.8 14.9 10.9 60 4.3 NNW 22 28 12 15 1014.3 1013.9 0.0
16/07:00pm 20.0 15.4 11.2 57 4.9 NNW 26 33 14 18 1014.4 1014.0 0.0
16/06:30pm 20.7 16.0 10.5 52 5.6 NNW 26 33 14 18 1014.4 1014.0 0.0
16/06:00pm 20.8 16.2 10.9 53 5.5 NNW 26 32 14 17 1014.6 1014.2 0.0
16/05:30pm 22.2 17.4 11.6 51 6.0 NNW 28 35 15 19 1014.8 1014.4 0.0
16/05:00pm 22.9 18.2 11.9 50 6.2 NNW 28 37 15 20 1014.7 1014.3 0.0
16/04:30pm 23.0 18.7 10.8 46 6.8 NNW 24 39 13 21 1015.1 1014.7 0.0
16/04:00pm 23.6 19.3 10.6 44 7.2 NNW 24 39 13 21 1015.3 1014.9 0.0
16/03:30pm 22.8 18.4 10.3 45 6.9 NW 24 32 13 17 1015.6 1015.2 0.0
16/03:00pm 23.6 18.4 10.3 43 7.4 NW 28 37 15 20 1016.0 1015.6 0.0
16/02:30pm 24.2 18.9 9.8 40 7.9 NW 28 39 15 21 1016.5 1016.2 0.0
16/02:00pm 23.9 18.9 10.9 44 7.3 NNW 28 39 15 21 1016.8 1016.5 0.0
16/01:30pm 24.1 19.6 11.4 45 7.2 NW 26 44 14 24 1017.2 1016.9 0.0
16/01:00pm 23.5 19.3 12.5 50 6.3 NW 26 35 14 19 1017.6 1017.3 0.0
16/12:30pm 21.4 19.3 11.1 52 5.7 N 13 22 7 12 1018.2 1017.8 0.0
16/12:00pm 21.8 19.2 12.1 54 5.5 NNW 17 22 9 12 1018.8 1018.4 0.0
16/11:30am 21.0 18.0 11.9 56 5.1 NW 19 24 10 13 1019.4 1019.0 0.0
16/11:00am 19.1 18.0 12.1 64 3.9 NW 9 17 5 9 1019.9 1019.5 0.0
16/10:30am 18.3 16.6 12.3 68 3.4 NW 13 22 7 12 1020.1 1019.7 0.0
16/10:00am 18.2 16.4 12.2 68 3.3 N 13 19 7 10 1020.3 1019.9 0.0
16/09:30am 17.3 16.3 12.4 73 2.7 NNE 9 15 5 8 1020.6 1020.2 0.0
16/09:00am 15.7 16.2 11.7 77 2.2 CALM 0 0 0 0 1020.9 1020.5 0.0
16/08:30am 15.4 15.6 12.0 80 1.9 NNE 2 7 1 4 1020.8 1020.4 0.0
16/08:00am 14.8 14.8 12.3 85 1.4 SW 4 7 2 4 1020.9 1020.5 0.0
16/07:30am 14.6 15.4 12.5 87 1.2 CALM 0 0 0 0 1021.0 1020.6 0.0
16/07:00am 14.3 14.1 11.8 85 1.4 SSW 4 7 2 4 1021.1 1020.7 0.0
16/06:30am 14.2 13.5 11.9 86 1.2 S 7 9 4 5 1020.9 1020.5 0.0
16/06:00am 13.4 13.0 11.1 86 1.2 NNE 4 7 2 4 1021.0 1020.6 0.0
16/05:30am 13.7 13.8 11.6 87 1.1 NNE 2 6 1 3 1021.2 1020.8 0.0
16/05:00am 13.6 12.6 11.1 85 1.3 NNE 7 9 4 5 1021.6 1021.3 0.0
16/04:30am 13.8 13.0 11.1 84 1.4 NNW 6 6 3 3 1021.9 1021.6 0.0
16/04:00am 13.3 11.7 10.1 81 1.7 NNW 9 9 5 5 1022.0 1021.7 0.0
16/03:30am 14.7 13.3 10.9 78 2.0 W 9 13 5 7 1022.2 1021.9 0.0
16/03:00am 14.9 13.6 11.1 78 2.0 W 9 13 5 7 1022.4 1022.1 0.0
16/02:30am 15.0 14.1 11.4 79 1.9 WNW 7 11 4 6 1022.8 1022.5 0.0
16/02:00am 14.3 13.4 10.7 79 1.9 NW 6 9 3 5 1023.0 1022.7 0.0
16/01:30am 15.2 13.9 11.4 78 2.1 W 9 11 5 6 1023.3 1023.0 0.0
16/01:00am 15.3 13.6 11.3 77 2.1 W 11 13 6 7 1023.4 1023.1 0.0
16/12:30am 15.7 14.4 11.3 75 2.4 W 9 11 5 6 1023.6 1023.3 0.0
16/12:00am 16.2 14.2 11.4 73 2.6 WNW 13 17 7 9 1023.7 1023.4 0.0
 
Date/Time
EDT
Temp
°C
App
Temp
°C
Dew
Point
°C
Rel
Hum
%
Delta-T
°C
Wind Press
QNH
hPa
Press
MSL
hPa
Rain since
9am
mm
Dir  Spd
km/h
Gust
km/h
Spd
kts
Gust
kts
15/11:30pm 16.3 14.3 11.5 73 2.6 WNW 13 17 7 9 1023.8 1023.5 0.0
15/11:00pm 16.3 14.3 11.5 73 2.6 WNW 13 17 7 9 1023.8 1023.5 0.0
15/10:30pm 16.2 14.2 11.4 73 2.6 NW 13 17 7 9 1023.8 1023.5 0.0
15/10:00pm 15.4 13.3 11.2 76 2.3 NW 13 17 7 9 1023.7 1023.4 0.0
15/09:30pm 16.0 13.2 11.2 73 2.6 NW 17 20 9 11 1023.6 1023.3 0.0
15/09:00pm 16.4 14.0 11.3 72 2.8 NW 15 19 8 10 1023.3 1023.0 0.0
15/08:30pm 16.7 13.9 11.2 70 3.0 NNW 17 20 9 11 1022.9 1022.6 0.0
15/08:00pm 18.2 14.9 11.0 63 3.9 N 19 28 10 15 1022.6 1022.3 0.0
15/07:30pm 19.1 14.9 11.2 60 4.3 N 24 32 13 17 1022.2 1021.9 0.0
15/07:00pm 19.8 14.9 11.3 58 4.7 NNW 28 37 15 20 1021.7 1021.4 0.0
15/06:30pm 20.2 15.1 10.6 54 5.3 NNW 28 35 15 19 1021.6 1021.3 0.0
15/06:00pm 21.5 15.6 11.2 52 5.7 NNW 33 41 18 22 1021.4 1021.0 0.0
15/05:30pm 23.3 17.4 11.0 46 6.9 NW 33 41 18 22 1021.1 1020.7 0.0
15/05:00pm 24.2 19.6 9.8 40 7.9 NW 24 37 13 20 1021.1 1020.7 0.0
15/04:30pm 25.7 22.3 5.8 28 10.3 WSW 13 19 7 10 1021.0 1020.6 0.0
15/04:00pm 25.3 23.1 6.0 29 10.0 ESE 7 13 4 7 1021.1 1020.7 0.0
15/03:30pm 24.8 22.3 4.5 27 10.2 SW 7 19 4 10 1021.3 1020.9 0.0
15/03:00pm 24.7 21.6 3.4 25 10.5 WSW 9 13 5 7 1021.4 1021.0 0.0
15/02:30pm 24.2 21.8 5.1 29 9.7 W 7 13 4 7 1021.7 1021.4 0.0
15/02:00pm 23.6 20.8 5.0 30 9.3 W 9 15 5 8 1021.9 1021.6 0.0
15/01:30pm 22.6 19.3 4.6 31 8.9 SSE 11 17 6 9 1022.2 1021.9 0.0
15/01:00pm 23.2 20.1 7.3 36 8.3 SE 13 22 7 12 1022.4 1022.1 0.0
15/12:30pm 22.1 19.4 8.9 43 7.1 SSE 13 24 7 13 1022.7 1022.4 0.0
15/12:00pm 21.1 17.6 7.0 40 7.2 SE 15 22 8 12 1023.1 1022.8 0.0

Other Formats:

Comma delimited format used in spreadsheet applications
http://www.bom.gov.au/fwo/IDT60801/IDT60801.95966.axf

JavaScript Object Notation format (JSON) in row-major order
http://www.bom.gov.au/fwo/IDT60801/IDT60801.95966.json